Time;durP1;ratioP1;P1;durP2;ratioP2;P2;SDS_P1;SDS_P2;PMS_P1;PMS_P2;Temp;Humidity;BMP_temperature;BMP_pressure;BME280_temperature;BME280_humidity;BME280_pressure;Samples;Min_cycle;Max_cycle;Signal;HPM_P1;HPM_P2
2021/09/16 00:02:10;;;;;;;6.93;6.30;;;15.20;99.90;;;;;;4406894;32;20180;-64
2021/09/16 00:04:37;;;;;;;8.07;6.10;;;15.20;99.90;;;;;;4407948;32;20174;-63
2021/09/16 00:07:06;;;;;;;7.67;5.60;;;15.10;99.90;;;;;;4406880;32;20170;-65
2021/09/16 00:09:34;;;;;;;6.27;5.87;;;15.20;99.90;;;;;;4407278;32;20190;-66
2021/09/16 00:12:01;;;;;;;6.47;5.97;;;15.20;99.90;;;;;;4407798;32;20171;-64
2021/09/16 00:14:28;;;;;;;7.33;6.57;;;15.20;99.90;;;;;;4406665;32;20215;-64
2021/09/16 00:16:55;;;;;;;7.03;6.43;;;15.20;99.90;;;;;;4408430;32;20559;-64
2021/09/16 00:19:26;;;;;;;7.70;6.27;;;15.20;99.90;;;;;;4392100;32;20174;-65
2021/09/16 00:21:53;;;;;;;7.13;6.63;;;15.20;99.90;;;;;;4393230;32;20239;-64
2021/09/16 00:24:21;;;;;;;7.80;6.30;;;15.30;99.90;;;;;;4393287;32;20171;-65
2021/09/16 00:26:50;;;;;;;6.77;6.20;;;15.20;99.90;;;;;;4392219;32;20152;-64
2021/09/16 00:29:17;;;;;;;6.30;5.53;;;15.10;99.90;;;;;;4407697;32;20186;-64
2021/09/16 00:31:44;;;;;;;6.30;5.90;;;14.90;99.90;;;;;;4407976;32;20227;-66
2021/09/16 00:34:10;;;;;;;6.13;5.43;;;14.70;99.90;;;;;;4406279;32;20168;-63
2021/09/16 00:36:40;;;;;;;6.07;5.67;;;14.60;99.90;;;;;;4406449;32;20159;-63
2021/09/16 00:39:07;;;;;;;6.47;5.67;;;14.40;99.90;;;;;;4407588;32;20605;-64
2021/09/16 00:41:36;;;;;;;6.23;5.67;;;14.20;99.90;;;;;;4406244;32;20168;-65
2021/09/16 00:44:02;;;;;;;7.27;6.57;;;14.20;99.90;;;;;;4406506;32;20170;-64
2021/09/16 00:46:29;;;;;;;11.77;7.43;;;14.10;99.90;;;;;;4406508;32;20156;-64
2021/09/16 00:48:56;;;;;;;7.10;6.50;;;14.10;99.90;;;;;;4406392;32;20156;-63
2021/09/16 00:51:23;;;;;;;6.60;6.20;;;14.20;99.90;;;;;;4353756;32;1709182;-65
2021/09/16 00:53:52;;;;;;;7.87;7.17;;;14.30;99.90;;;;;;4406221;32;20201;-65
2021/09/16 00:56:23;;;;;;;6.87;6.37;;;14.40;99.90;;;;;;4406975;32;20185;-65
2021/09/16 00:58:53;;;;;;;7.50;7.03;;;14.40;99.90;;;;;;4407834;32;20567;-65
2021/09/16 01:01:21;;;;;;;7.67;5.40;;;14.40;99.90;;;;;;4406233;32;20178;-65
2021/09/16 01:03:47;;;;;;;9.03;6.00;;;14.50;99.90;;;;;;4406136;32;20217;-65
2021/09/16 01:06:16;;;;;;;6.43;6.03;;;14.50;99.90;;;;;;4406064;32;20174;-65
2021/09/16 01:08:43;;;;;;;6.33;5.83;;;14.50;99.90;;;;;;4407734;32;20497;-65
2021/09/16 01:11:12;;;;;;;6.63;6.00;;;14.40;99.90;;;;;;4406178;32;20175;-63
2021/09/16 01:13:39;;;;;;;5.53;5.07;;;14.30;99.90;;;;;;4407651;32;20147;-66
2021/09/16 01:16:07;;;;;;;6.40;5.53;;;14.20;99.90;;;;;;4404710;32;20223;-65
2021/09/16 01:18:37;;;;;;;6.60;5.70;;;14.20;99.90;;;;;;4407207;32;20222;-68
2021/09/16 01:21:03;;;;;;;6.03;5.53;;;14.20;99.90;;;;;;4405907;32;20191;-65
2021/09/16 01:23:34;;;;;;;6.87;6.37;;;14.10;99.90;;;;;;4405875;32;20148;-65
2021/09/16 01:26:01;;;;;;;7.33;6.83;;;14.10;99.90;;;;;;4405598;32;20147;-67
2021/09/16 01:28:30;;;;;;;6.33;5.80;;;14.10;99.90;;;;;;4404398;32;20520;-65
2021/09/16 01:30:56;;;;;;;6.30;5.70;;;14.10;99.90;;;;;;4405683;32;20168;-64
2021/09/16 01:33:25;;;;;;;6.13;5.63;;;14.10;99.90;;;;;;4407092;32;20171;-66
2021/09/16 01:35:52;;;;;;;6.00;5.60;;;14.20;99.90;;;;;;4405659;32;20151;-67
2021/09/16 01:38:19;;;;;;;8.17;6.33;;;14.30;99.90;;;;;;4405818;32;20203;-64
2021/09/16 01:40:47;;;;;;;7.33;5.17;;;14.30;99.90;;;;;;4407031;32;20175;-65
2021/09/16 01:43:15;;;;;;;6.30;5.87;;;14.50;99.90;;;;;;4406020;32;20207;-64
2021/09/16 01:45:42;;;;;;;7.47;6.77;;;14.60;99.90;;;;;;4405764;32;20221;-64
2021/09/16 01:48:09;;;;;;;6.73;6.33;;;14.70;99.90;;;;;;4389751;32;20244;-64
2021/09/16 01:50:36;;;;;;;6.83;6.33;;;14.80;99.90;;;;;;4405394;32;20168;-66
2021/09/16 01:53:09;;;;;;;6.77;5.80;;;14.90;99.90;;;;;;4406535;32;20487;-65
2021/09/16 01:55:36;;;;;;;8.07;5.93;;;15.00;99.90;;;;;;4403399;32;20178;-65
2021/09/16 01:58:06;;;;;;;6.37;5.97;;;15.00;99.90;;;;;;4405452;32;20175;-64
2021/09/16 02:00:32;;;;;;;5.73;5.23;;;15.00;99.90;;;;;;4406890;32;20191;-65
2021/09/16 02:02:59;;;;;;;5.60;5.20;;;15.00;99.90;;;;;;4405525;32;20170;-64
2021/09/16 02:05:26;;;;;;;8.37;7.30;;;15.10;99.90;;;;;;4405644;32;20478;-65
2021/09/16 02:07:55;;;;;;;5.73;5.27;;;15.10;99.90;;;;;;4405584;32;20159;-66
2021/09/16 02:10:21;;;;;;;5.70;5.20;;;15.10;99.90;;;;;;4406606;32;20505;-68
2021/09/16 02:12:48;;;;;;;5.73;5.23;;;15.20;99.90;;;;;;4406620;32;20171;-64
2021/09/16 02:15:16;;;;;;;7.80;6.60;;;15.20;99.90;;;;;;4405359;32;20147;-65
2021/09/16 02:17:43;;;;;;;6.27;5.27;;;15.20;99.90;;;;;;4405051;32;20159;-65
2021/09/16 02:20:11;;;;;;;10.57;5.80;;;15.20;99.90;;;;;;4405344;32;20144;-64
2021/09/16 02:22:38;;;;;;;6.77;6.27;;;15.30;99.90;;;;;;4405496;32;20171;-64
2021/09/16 02:25:08;;;;;;;5.77;5.37;;;15.30;99.90;;;;;;4405653;32;20183;-65
2021/09/16 02:27:35;;;;;;;7.27;6.67;;;15.30;99.90;;;;;;4405299;32;20152;-64
2021/09/16 02:30:02;;;;;;;6.57;5.97;;;15.30;99.90;;;;;;4405260;32;20166;-66
2021/09/16 02:32:30;;;;;;;6.57;6.13;;;15.30;99.90;;;;;;4406262;32;20512;-64
2021/09/16 02:34:57;;;;;;;6.70;6.10;;;15.30;99.90;;;;;;4405196;32;20159;-65
2021/09/16 02:37:29;;;;;;;7.63;6.93;;;15.30;99.90;;;;;;4405259;32;20238;-64
2021/09/16 02:39:56;;;;;;;6.13;5.73;;;15.30;99.90;;;;;;4405245;32;20152;-65
2021/09/16 02:42:24;;;;;;;7.27;6.83;;;15.20;99.90;;;;;;4406519;32;20178;-64
2021/09/16 02:44:51;;;;;;;6.60;6.10;;;15.10;99.90;;;;;;4405181;32;20155;-64
2021/09/16 02:47:21;;;;;;;6.23;5.80;;;15.10;99.90;;;;;;4406049;32;20152;-64
2021/09/16 02:49:49;;;;;;;6.93;6.50;;;15.00;99.90;;;;;;4405009;32;20191;-66
2021/09/16 02:52:18;;;;;;;6.73;6.20;;;15.00;99.90;;;;;;4405275;32;20152;-65
2021/09/16 02:54:44;;;;;;;6.30;5.80;;;15.00;99.90;;;;;;4406850;32;20194;-64
2021/09/16 02:57:14;;;;;;;7.60;6.97;;;15.10;99.90;;;;;;4405110;32;20148;-64
2021/09/16 02:59:41;;;;;;;8.67;6.93;;;15.10;99.90;;;;;;4405173;32;20183;-64
2021/09/16 03:02:08;;;;;;;6.03;5.53;;;15.10;99.90;;;;;;4406640;32;20147;-66
2021/09/16 03:04:35;;;;;;;7.57;6.90;;;15.20;99.90;;;;;;4408641;32;20217;-64
2021/09/16 03:07:03;;;;;;;12.23;6.93;;;15.20;99.90;;;;;;4408270;32;20178;-67
2021/09/16 03:09:30;;;;;;;6.73;6.27;;;15.20;99.90;;;;;;4407718;32;20152;-66
2021/09/16 03:11:58;;;;;;;6.40;6.07;;;15.30;99.90;;;;;;4408727;32;20484;-64
2021/09/16 03:14:25;;;;;;;5.50;5.20;;;15.30;99.90;;;;;;4407747;32;20167;-65
2021/09/16 03:16:52;;;;;;;6.40;5.80;;;15.20;99.90;;;;;;4406929;32;20198;-65
2021/09/16 03:19:19;;;;;;;6.30;5.73;;;15.30;99.90;;;;;;4407420;32;20174;-64
2021/09/16 03:21:46;;;;;;;7.00;6.60;;;15.40;99.90;;;;;;4407924;32;20519;-64
2021/09/16 03:24:14;;;;;;;7.30;6.70;;;15.40;99.90;;;;;;4407697;32;20147;-63
2021/09/16 03:26:41;;;;;;;7.07;6.50;;;15.40;99.90;;;;;;4407448;32;20151;-67
2021/09/16 03:29:11;;;;;;;8.83;8.03;;;15.40;99.90;;;;;;4407687;32;20170;-64
2021/09/16 03:31:38;;;;;;;7.63;7.00;;;15.40;99.90;;;;;;4407505;32;20151;-64
2021/09/16 03:34:04;;;;;;;6.73;6.23;;;15.40;99.90;;;;;;4409143;32;20191;-64
2021/09/16 03:36:31;;;;;;;9.00;8.20;;;15.40;99.90;;;;;;4407416;32;20171;-64
2021/09/16 03:39:01;;;;;;;8.67;7.83;;;15.40;99.90;;;;;;4408256;32;20157;-63
2021/09/16 03:41:29;;;;;;;6.90;6.30;;;15.40;99.90;;;;;;4407414;32;20170;-64
2021/09/16 03:43:58;;;;;;;6.33;5.83;;;15.40;99.90;;;;;;4408791;32;20459;-65
2021/09/16 03:46:25;;;;;;;6.63;6.07;;;15.40;99.90;;;;;;4407382;32;20234;-64
2021/09/16 03:48:52;;;;;;;7.40;6.87;;;15.50;99.90;;;;;;4407185;32;20152;-65
2021/09/16 03:51:19;;;;;;;6.90;6.33;;;15.40;99.90;;;;;;4407253;32;20182;-66
2021/09/16 03:53:46;;;;;;;7.30;6.80;;;15.50;99.90;;;;;;4406997;32;20152;-64
2021/09/16 03:56:13;;;;;;;6.07;5.60;;;15.50;99.90;;;;;;4408829;32;20204;-67
2021/09/16 03:58:41;;;;;;;7.83;6.93;;;15.40;99.90;;;;;;4407050;32;20152;-65
2021/09/16 04:01:09;;;;;;;8.27;6.17;;;15.40;99.90;;;;;;4407790;32;20152;-66
2021/09/16 04:03:38;;;;;;;7.33;6.93;;;15.50;99.90;;;;;;4408191;32;20167;-64
2021/09/16 04:06:05;;;;;;;7.17;6.03;;;15.50;99.90;;;;;;4407022;32;20148;-64
2021/09/16 04:08:32;;;;;;;6.70;6.20;;;15.50;99.90;;;;;;4408484;32;20594;-64
2021/09/16 04:10:59;;;;;;;5.57;5.27;;;15.50;99.90;;;;;;4399459;32;20160;-64
2021/09/16 04:13:26;;;;;;;6.83;6.33;;;15.50;99.90;;;;;;4392363;32;20168;-64
2021/09/16 04:15:54;;;;;;;6.90;6.40;;;15.60;99.90;;;;;;4404721;32;20190;-65
2021/09/16 04:18:21;;;;;;;7.50;6.90;;;15.50;99.90;;;;;;4407531;32;20179;-67
2021/09/16 04:20:48;;;;;;;6.73;6.13;;;15.50;99.90;;;;;;4406918;32;20179;-67
2021/09/16 04:23:14;;;;;;;7.17;6.67;;;15.50;99.90;;;;;;4407391;32;20174;-64
2021/09/16 04:25:41;;;;;;;8.50;7.07;;;15.50;99.90;;;;;;4407034;32;20170;-64
2021/09/16 04:28:08;;;;;;;7.93;6.50;;;15.50;99.90;;;;;;4406974;32;20498;-64
2021/09/16 04:30:35;;;;;;;7.07;6.57;;;15.50;99.90;;;;;;4406578;32;20211;-67
2021/09/16 04:33:03;;;;;;;7.47;6.87;;;15.50;99.90;;;;;;4406707;32;20182;-64
2021/09/16 04:35:30;;;;;;;7.60;7.00;;;15.50;99.90;;;;;;4406591;32;20182;-64
2021/09/16 04:37:57;;;;;;;8.40;7.90;;;15.50;99.90;;;;;;4406786;32;20163;-64
2021/09/16 04:40:24;;;;;;;7.20;6.50;;;15.50;99.90;;;;;;4408307;32;20155;-63
2021/09/16 04:42:51;;;;;;;10.53;6.67;;;15.50;99.90;;;;;;4408235;32;20185;-64
2021/09/16 04:45:17;;;;;;;7.80;7.10;;;15.50;99.90;;;;;;4408212;32;20594;-64
2021/09/16 04:47:46;;;;;;;8.37;7.77;;;15.60;99.90;;;;;;4406427;32;20170;-63
2021/09/16 04:50:15;;;;;;;7.30;6.87;;;15.60;99.90;;;;;;4407862;32;20167;-63
2021/09/16 04:52:42;;;;;;;6.83;6.43;;;15.60;99.90;;;;;;4408136;32;20190;-64
2021/09/16 04:55:11;;;;;;;8.57;7.77;;;15.60;99.90;;;;;;4407820;32;20516;-64
2021/09/16 04:57:39;;;;;;;7.23;6.67;;;15.60;99.90;;;;;;4406278;32;20176;-63
2021/09/16 05:00:07;;;;;;;7.13;6.60;;;15.60;99.90;;;;;;4406169;32;20227;-65
2021/09/16 05:02:34;;;;;;;8.40;6.07;;;15.60;99.90;;;;;;4407881;32;20175;-63
2021/09/16 05:05:01;;;;;;;8.70;6.47;;;15.50;99.90;;;;;;4406179;32;21089;-63
2021/09/16 05:07:31;;;;;;;10.73;6.93;;;15.40;99.90;;;;;;4407263;32;20183;-65
2021/09/16 05:10:07;;;;;;;7.00;6.47;;;15.40;99.90;;;;;;4405508;32;20484;-65
2021/09/16 05:12:39;;;;;;;7.80;5.53;;;15.40;99.90;;;;;;4407224;32;20178;-65
2021/09/16 05:15:07;;;;;;;9.37;8.43;;;15.40;99.90;;;;;;4405497;32;20213;-64
2021/09/16 05:17:34;;;;;;;6.33;5.83;;;15.50;99.90;;;;;;4405882;32;20222;-64
2021/09/16 05:20:01;;;;;;;6.53;6.03;;;15.50;99.90;;;;;;4403128;32;20156;-64
2021/09/16 05:22:33;;;;;;;6.90;6.33;;;15.50;99.90;;;;;;4406170;32;20221;-63
2021/09/16 05:25:00;;;;;;;6.17;5.70;;;15.50;99.90;;;;;;4405048;32;20503;-64
2021/09/16 05:27:27;;;;;;;7.70;7.20;;;15.50;99.90;;;;;;4403690;32;20182;-63
2021/09/16 05:29:55;;;;;;;7.57;7.07;;;15.60;99.90;;;;;;4404481;32;20174;-65
2021/09/16 05:32:27;;;;;;;6.87;6.47;;;15.60;99.90;;;;;;4404322;32;20164;-64
2021/09/16 05:34:54;;;;;;;7.17;6.77;;;15.60;99.90;;;;;;4404701;32;20168;-66
2021/09/16 05:37:22;;;;;;;7.00;6.40;;;15.60;99.90;;;;;;4399512;32;20215;-64
2021/09/16 05:39:51;;;;;;;10.63;7.40;;;15.60;99.90;;;;;;4398415;32;20246;-66
2021/09/16 05:42:19;;;;;;;6.37;5.97;;;15.50;99.90;;;;;;4401322;32;20213;-64
2021/09/16 05:44:46;;;;;;;7.17;6.67;;;15.50;99.90;;;;;;4403638;32;20159;-67
2021/09/16 05:47:13;;;;;;;7.77;7.27;;;15.40;99.90;;;;;;4399773;32;20223;-64
2021/09/16 05:49:40;;;;;;;7.00;6.57;;;15.30;99.90;;;;;;4404815;32;20176;-65
2021/09/16 05:52:08;;;;;;;7.80;7.20;;;15.30;99.90;;;;;;4400775;32;20234;-68
2021/09/16 05:54:35;;;;;;;7.97;7.40;;;15.20;99.90;;;;;;4399064;32;20240;-66
2021/09/16 05:57:04;;;;;;;7.13;6.43;;;15.20;99.90;;;;;;4398381;32;20171;-67
2021/09/16 05:59:31;;;;;;;7.30;6.80;;;15.30;99.90;;;;;;4396192;32;20180;-65
2021/09/16 06:01:59;;;;;;;7.50;6.80;;;15.40;99.90;;;;;;4403460;32;20171;-66
2021/09/16 06:04:26;;;;;;;7.57;7.07;;;15.50;99.90;;;;;;4396230;32;20198;-67
2021/09/16 06:06:53;;;;;;;7.20;6.63;;;15.70;99.90;;;;;;4398485;32;20190;-68
2021/09/16 06:09:20;;;;;;;7.93;7.30;;;15.80;99.90;;;;;;4400363;32;20552;-69
2021/09/16 06:11:47;;;;;;;7.33;6.43;;;15.80;99.90;;;;;;4400027;32;20217;-68
2021/09/16 06:14:16;;;;;;;7.17;6.67;;;15.80;99.90;;;;;;4397850;32;20198;-66
2021/09/16 06:16:43;;;;;;;7.27;6.77;;;15.90;99.90;;;;;;4400171;32;20183;-66
2021/09/16 06:19:10;;;;;;;7.80;7.20;;;15.90;99.90;;;;;;4401218;32;20178;-68
2021/09/16 06:21:37;;;;;;;7.83;7.33;;;16.00;99.90;;;;;;4400803;32;20171;-65
2021/09/16 06:24:05;;;;;;;7.37;6.77;;;16.00;99.90;;;;;;4398269;32;20503;-65
2021/09/16 06:26:32;;;;;;;8.77;7.97;;;16.10;99.90;;;;;;4397835;32;20163;-65
2021/09/16 06:28:59;;;;;;;10.07;9.37;;;16.20;99.90;;;;;;4397993;32;20214;-63
2021/09/16 06:31:28;;;;;;;8.27;7.63;;;16.30;99.90;;;;;;4398754;32;20495;-63
2021/09/16 06:33:55;;;;;;;8.27;7.67;;;16.40;99.90;;;;;;4400553;32;20170;-63
2021/09/16 06:36:22;;;;;;;8.90;8.20;;;16.40;99.90;;;;;;4402321;32;20584;-65
2021/09/16 06:38:49;;;;;;;9.97;8.83;;;16.30;99.90;;;;;;4402364;32;20222;-63
2021/09/16 06:41:17;;;;;;;8.63;8.03;;;16.50;99.90;;;;;;4402185;32;20178;-64
2021/09/16 06:43:44;;;;;;;9.97;9.47;;;16.60;99.90;;;;;;4403816;32;20155;-63
2021/09/16 06:46:11;;;;;;;10.93;10.23;;;16.70;99.90;;;;;;4398728;32;20183;-63
2021/09/16 06:48:40;;;;;;;10.87;10.13;;;16.80;99.90;;;;;;4403491;32;20164;-64
2021/09/16 06:51:07;;;;;;;9.60;9.00;;;16.70;99.90;;;;;;4401032;32;20172;-64
2021/09/16 06:53:34;;;;;;;10.13;9.37;;;16.60;99.90;;;;;;4400403;32;20583;-64
2021/09/16 06:56:02;;;;;;;8.03;7.53;;;16.40;99.90;;;;;;4402855;32;20160;-64
2021/09/16 06:58:29;;;;;;;8.17;7.67;;;16.20;99.90;;;;;;4398445;32;20250;-64
2021/09/16 07:00:56;;;;;;;8.73;7.93;;;16.00;99.90;;;;;;4403416;32;20155;-64
2021/09/16 07:03:23;;;;;;;10.00;9.30;;;15.90;99.90;;;;;;4397984;32;20209;-65
2021/09/16 07:05:52;;;;;;;10.03;9.20;;;15.90;99.90;;;;;;4399556;32;20195;-64
2021/09/16 07:08:19;;;;;;;8.57;7.83;;;15.80;99.90;;;;;;4404086;32;20164;-64
2021/09/16 07:10:46;;;;;;;8.00;7.60;;;15.80;99.90;;;;;;4406553;32;20178;-65
2021/09/16 07:13:14;;;;;;;8.17;7.67;;;15.80;99.90;;;;;;4405609;32;20571;-65
2021/09/16 07:15:41;;;;;;;9.43;8.80;;;15.90;99.90;;;;;;4407821;32;20545;-64
2021/09/16 07:18:08;;;;;;;9.87;8.93;;;15.90;99.90;;;;;;4406376;32;20218;-64
2021/09/16 07:20:35;;;;;;;7.73;7.23;;;15.90;99.90;;;;;;4400145;32;20174;-64
2021/09/16 07:23:04;;;;;;;9.53;8.53;;;15.90;99.90;;;;;;4398990;32;20159;-64
2021/09/16 07:25:31;;;;;;;8.17;7.30;;;16.00;99.90;;;;;;4407824;32;20186;-65
2021/09/16 07:27:59;;;;;;;10.07;9.27;;;16.10;99.90;;;;;;4408623;32;20179;-65
2021/09/16 07:30:26;;;;;;;8.20;7.80;;;16.10;99.90;;;;;;4406386;32;20250;-63
2021/09/16 07:32:53;;;;;;;9.13;8.23;;;16.20;99.90;;;;;;4407654;32;20167;-64
2021/09/16 07:35:22;;;;;;;8.73;7.97;;;16.30;99.90;;;;;;4404176;32;20176;-64
2021/09/16 07:37:49;;;;;;;8.93;8.33;;;16.40;99.90;;;;;;4408830;32;20160;-64
2021/09/16 07:40:18;;;;;;;9.97;8.73;;;16.50;99.90;;;;;;4403150;32;20197;-64
2021/09/16 07:42:47;;;;;;;10.57;9.73;;;16.60;99.90;;;;;;4395281;32;20171;-64
2021/09/16 07:45:14;;;;;;;10.67;10.07;;;16.80;99.90;;;;;;4398681;32;20178;-65
2021/09/16 07:47:41;;;;;;;10.67;10.17;;;16.90;99.90;;;;;;4405568;32;20166;-64
2021/09/16 07:50:09;;;;;;;12.23;10.03;;;17.10;99.90;;;;;;4404005;32;20163;-63
2021/09/16 07:52:36;;;;;;;11.00;10.33;;;17.30;99.90;;;;;;4396031;32;20491;-64
2021/09/16 07:55:04;;;;;;;12.10;11.33;;;17.50;99.90;;;;;;4402360;32;20163;-64
2021/09/16 07:57:33;;;;;;;13.67;12.70;;;17.50;99.90;;;;;;4406433;32;20583;-64
2021/09/16 08:00:00;;;;;;;13.60;12.63;;;17.70;99.90;;;;;;4405694;32;20588;-64
2021/09/16 08:02:27;;;;;;;14.57;13.87;;;17.70;99.90;;;;;;4407098;32;20168;-63
2021/09/16 08:04:54;;;;;;;14.27;13.23;;;17.80;99.90;;;;;;4401755;32;20199;-64
2021/09/16 08:07:21;;;;;;;14.37;13.37;;;17.90;99.90;;;;;;4407080;32;20178;-64
2021/09/16 08:09:49;;;;;;;14.97;14.07;;;18.10;99.90;;;;;;4408444;32;20676;-64
2021/09/16 08:12:16;;;;;;;13.50;12.50;;;18.20;99.90;;;;;;4405621;32;20250;-64
2021/09/16 08:14:44;;;;;;;14.90;13.93;;;18.30;99.90;;;;;;4403248;32;20175;-64
2021/09/16 08:17:12;;;;;;;15.63;14.77;;;18.70;99.90;;;;;;4405512;32;20184;-64
2021/09/16 08:19:41;;;;;;;17.77;16.77;;;19.00;99.90;;;;;;4397202;32;20179;-64
2021/09/16 08:22:08;;;;;;;20.37;19.30;;;19.10;99.90;;;;;;4395495;32;20216;-65
2021/09/16 08:24:35;;;;;;;16.90;16.00;;;19.70;99.90;;;;;;4397679;32;20576;-64
2021/09/16 08:27:03;;;;;;;22.17;20.83;;;20.00;99.90;;;;;;4396503;32;20502;-65
2021/09/16 08:29:31;;;;;;;22.77;21.27;;;22.70;99.90;;;;;;4392951;32;20461;-64
2021/09/16 08:31:59;;;;;;;18.97;17.87;;;26.20;96.10;;;;;;4402079;32;20160;-65
2021/09/16 08:34:28;;;;;;;16.87;16.07;;;30.00;90.90;;;;;;4395702;32;20182;-64
2021/09/16 08:36:56;;;;;;;14.47;13.47;;;32.20;77.60;;;;;;4396413;32;20219;-66
2021/09/16 08:39:24;;;;;;;13.73;12.83;;;32.60;69.90;;;;;;4399169;32;20148;-65
2021/09/16 08:41:53;;;;;;;16.13;15.23;;;29.70;72.10;;;;;;4404056;32;20191;-65
2021/09/16 08:44:21;;;;;;;15.27;14.33;;;27.30;77.80;;;;;;4399973;32;20155;-65
2021/09/16 08:46:48;;;;;;;17.13;16.30;;;24.70;84.10;;;;;;4407162;32;20184;-65
2021/09/16 08:49:16;;;;;;;22.97;21.60;;;23.00;90.50;;;;;;4401362;32;20193;-65
2021/09/16 08:51:44;;;;;;;19.93;18.73;;;22.20;93.70;;;;;;4405179;32;20453;-65
2021/09/16 08:54:12;;;;;;;23.97;22.87;;;21.40;95.60;;;;;;4394301;32;20190;-64
2021/09/16 08:56:45;;;;;;;26.47;24.93;;;20.60;97.90;;;;;;4403401;32;20156;-64
2021/09/16 08:59:12;;;;;;;25.30;24.07;;;20.40;99.30;;;;;;4400961;32;20178;-65
2021/09/16 09:01:40;;;;;;;27.90;26.20;;;20.10;99.90;;;;;;4407396;32;20159;-64
2021/09/16 09:04:07;;;;;;;28.40;26.87;;;19.90;99.90;;;;;;4409740;32;20182;-63
2021/09/16 09:06:38;;;;;;;31.07;29.50;;;20.00;99.90;;;;;;4394867;32;20217;-65
2021/09/16 09:09:11;;;;;;;25.70;24.33;;;20.40;99.90;;;;;;4405685;32;20218;-64
2021/09/16 09:11:56;;;;;;;25.20;23.93;;;20.60;99.90;;;;;;4406976;32;20195;-64
2021/09/16 09:14:25;;;;;;;26.23;25.03;;;20.40;99.90;;;;;;4392739;32;20179;-67
2021/09/16 09:16:53;;;;;;;25.20;23.93;;;20.00;99.90;;;;;;4398238;32;20500;-64
2021/09/16 09:19:22;;;;;;;27.97;26.37;;;19.70;99.90;;;;;;4406315;32;20155;-69
2021/09/16 09:21:52;;;;;;;28.17;26.93;;;19.80;99.90;;;;;;4406264;32;20185;-66
2021/09/16 09:24:38;;;;;;;29.97;28.30;;;20.00;99.90;;;;;;4404472;32;20196;-66
2021/09/16 09:27:23;;;;;;;26.43;25.17;;;20.30;99.90;;;;;;4406115;32;20457;-65
2021/09/16 09:30:09;;;;;;;26.27;24.97;;;20.60;99.90;;;;;;4404933;32;20159;-64
2021/09/16 09:32:54;;;;;;;27.23;25.90;;;20.40;99.90;;;;;;4395974;32;20160;-65
2021/09/16 09:35:29;;;;;;;24.27;23.10;;;20.40;99.90;;;;;;4405527;32;20160;-65
2021/09/16 09:38:01;;;;;;;22.20;21.17;;;20.20;99.90;;;;;;4400980;32;20155;-64
2021/09/16 09:40:30;;;;;;;26.30;24.90;;;19.80;99.90;;;;;;4402294;32;20560;-65
2021/09/16 09:43:17;;;;;;;28.10;26.63;;;20.10;99.90;;;;;;4400555;32;20156;-64
2021/09/16 09:46:03;;;;;;;27.50;25.77;;;20.70;99.90;;;;;;4402898;32;20164;-64
2021/09/16 09:48:31;;;;;;;26.13;24.83;;;20.80;99.90;;;;;;4390291;32;20179;-64
2021/09/16 09:50:59;;;;;;;28.10;26.60;;;20.70;99.90;;;;;;4404203;32;20168;-64
2021/09/16 09:53:28;;;;;;;28.47;27.23;;;20.70;99.90;;;;;;4395705;32;20986;-65
2021/09/16 09:55:55;;;;;;;31.60;30.00;;;20.60;99.90;;;;;;4403506;32;20175;-64
2021/09/16 09:58:40;;;;;;;33.00;31.33;;;20.70;99.90;;;;;;4399141;32;20191;-65
2021/09/16 10:01:27;;;;;;;28.40;27.07;;;20.90;99.90;;;;;;4397382;32;20480;-65
2021/09/16 10:03:54;;;;;;;26.67;25.03;;;20.90;99.90;;;;;;4395499;32;20610;-65
2021/09/16 10:06:21;;;;;;;29.13;27.57;;;20.60;99.90;;;;;;4400209;32;20164;-65
2021/09/16 10:09:09;;;;;;;25.93;24.67;;;20.20;99.90;;;;;;4404149;32;20249;-65
2021/09/16 10:11:41;;;;;;;24.60;23.13;;;20.20;99.90;;;;;;4406541;32;20183;-65
2021/09/16 10:14:09;;;;;;;27.30;25.93;;;19.90;99.90;;;;;;4409745;32;20159;-65
2021/09/16 10:16:38;;;;;;;27.47;25.87;;;19.90;99.90;;;;;;4407449;32;20186;-65
2021/09/16 10:19:05;;;;;;;26.90;25.47;;;19.90;99.90;;;;;;4408410;32;20159;-65
2021/09/16 10:21:33;;;;;;;27.23;25.73;;;19.90;99.90;;;;;;4405655;32;20185;-65
2021/09/16 10:24:02;;;;;;;30.43;29.00;;;19.80;99.90;;;;;;4397078;32;20218;-65
2021/09/16 10:26:35;;;;;;;30.00;28.63;;;20.00;99.90;;;;;;4403881;32;20161;-65
2021/09/16 10:29:02;;;;;;;28.50;27.00;;;20.10;99.90;;;;;;4401533;32;20168;-66
2021/09/16 10:31:29;;;;;;;26.10;24.93;;;20.20;99.90;;;;;;4407318;32;20191;-65
2021/09/16 10:33:57;;;;;;;31.47;30.17;;;20.30;99.90;;;;;;4405024;32;20533;-65
2021/09/16 10:36:24;;;;;;;26.63;25.47;;;20.30;99.90;;;;;;4406499;32;20187;-65
2021/09/16 10:38:55;;;;;;;27.23;25.93;;;20.80;99.90;;;;;;4403042;32;20160;-65
2021/09/16 10:41:28;;;;;;;32.63;31.17;;;20.60;99.90;;;;;;4405305;32;20174;-65
2021/09/16 10:44:19;;;;;;;29.27;27.90;;;20.50;99.90;;;;;;4408402;32;20200;-65
2021/09/16 10:46:47;;;;;;;26.07;24.83;;;20.70;99.90;;;;;;4408500;32;20156;-68
2021/09/16 10:49:32;;;;;;;32.03;30.57;;;20.80;99.90;;;;;;4408389;32;20190;-65
2021/09/16 10:52:02;;;;;;;23.17;21.97;;;21.10;99.90;;;;;;4408297;32;20587;-65
2021/09/16 10:54:37;;;;;;;25.60;24.40;;;21.00;99.90;;;;;;4402862;32;20155;-68
2021/09/16 10:57:09;;;;;;;31.33;30.03;;;21.40;99.90;;;;;;4408093;32;20171;-65
2021/09/16 11:00:05;;;;;;;29.83;28.50;;;21.80;99.50;;;;;;4408179;32;20503;-65
2021/09/16 11:03:17;;;;;;;29.83;28.47;;;21.80;99.40;;;;;;4372706;32;20199;-65
2021/09/16 11:05:58;;;;;;;28.37;26.97;;;21.70;99.30;;;;;;4307399;33;20220;-66
2021/09/16 11:09:00;;;;;;;29.73;28.13;;;21.70;99.80;;;;;;4293112;33;20180;-65
2021/09/16 11:11:54;;;;;;;34.50;32.57;;;21.50;99.90;;;;;;4302237;33;20225;-65
2021/09/16 11:14:35;;;;;;;28.57;27.03;;;21.40;99.90;;;;;;4293802;33;20218;-65
2021/09/16 11:17:04;;;;;;;32.87;31.30;;;21.40;99.90;;;;;;4305236;33;20188;-66
2021/09/16 11:19:32;;;;;;;29.87;28.47;;;21.40;99.90;;;;;;4310916;33;20193;-66
2021/09/16 11:22:05;;;;;;;37.07;35.40;;;21.30;99.90;;;;;;4293339;33;20170;-69
2021/09/16 11:24:35;;;;;;;30.97;29.43;;;21.10;99.90;;;;;;4298407;33;20204;-66
2021/09/16 11:27:02;;;;;;;34.17;32.73;;;20.70;99.90;;;;;;4298879;33;20298;-65
2021/09/16 11:29:41;;;;;;;36.97;34.87;;;20.70;99.90;;;;;;4297110;33;20197;-63
2021/09/16 11:32:12;;;;;;;35.13;33.63;;;20.60;99.90;;;;;;4294937;33;20252;-65
2021/09/16 11:34:52;;;;;;;32.53;31.17;;;20.60;99.90;;;;;;4307247;33;20232;-64
2021/09/16 11:37:22;;;;;;;36.73;35.13;;;20.30;99.90;;;;;;4302139;33;20219;-64
2021/09/16 11:39:57;;;;;;;36.60;34.77;;;20.40;99.90;;;;;;4327913;33;20266;-65
2021/09/16 11:42:25;;;;;;;36.47;34.50;;;20.80;99.90;;;;;;4374638;32;20174;-65
2021/09/16 11:45:02;;;;;;;36.63;35.03;;;20.90;99.90;;;;;;4405771;32;20211;-67
2021/09/16 11:47:30;;;;;;;34.47;33.03;;;20.90;99.90;;;;;;4405534;32;20178;-65
2021/09/16 11:49:57;;;;;;;35.57;33.77;;;21.30;99.90;;;;;;4401476;32;20461;-70
2021/09/16 11:52:27;;;;;;;35.63;33.77;;;21.70;99.90;;;;;;4403564;32;20580;-70
2021/09/16 11:55:11;;;;;;;33.90;32.30;;;21.80;99.90;;;;;;4404544;32;20603;-66
2021/09/16 11:57:59;;;;;;;33.73;32.13;;;22.20;99.90;;;;;;4405830;32;20164;-69
2021/09/16 12:00:35;;;;;;;32.47;30.93;;;21.90;99.90;;;;;;4401938;32;20637;-69
2021/09/16 12:03:04;;;;;;;30.53;29.20;;;21.80;99.90;;;;;;4403345;32;20203;-68
2021/09/16 12:05:33;;;;;;;34.53;32.93;;;21.80;99.90;;;;;;4400592;32;20171;-70
2021/09/16 12:08:01;;;;;;;36.17;34.60;;;21.80;99.90;;;;;;4398507;32;20226;-69
2021/09/16 12:10:40;;;;;;;32.97;31.17;;;21.90;99.90;;;;;;4403366;32;20163;-70
2021/09/16 12:13:08;;;;;;;31.47;29.67;;;21.70;99.90;;;;;;4399523;32;20152;-66
2021/09/16 12:15:37;;;;;;;33.80;32.30;;;21.50;99.90;;;;;;4398085;32;20618;-68
2021/09/16 12:18:05;;;;;;;35.90;34.10;;;20.90;99.90;;;;;;4403147;32;20465;-67
2021/09/16 12:20:33;;;;;;;35.40;33.67;;;20.60;99.90;;;;;;4400231;32;20275;-66
2021/09/16 12:23:00;;;;;;;36.40;34.70;;;20.70;99.90;;;;;;4396070;32;20192;-66
2021/09/16 12:25:28;;;;;;;35.47;33.97;;;20.80;99.90;;;;;;4400550;32;20229;-66
2021/09/16 12:28:06;;;;;;;35.43;33.80;;;20.70;99.90;;;;;;4401891;32;20651;-67
2021/09/16 12:30:38;;;;;;;40.50;38.70;;;20.20;99.90;;;;;;4398742;32;20182;-66
2021/09/16 12:33:33;;;;;;;41.07;39.20;;;20.00;99.90;;;;;;4395975;32;20152;-65
2021/09/16 12:36:28;;;;;;;36.87;35.20;;;20.00;99.90;;;;;;4401558;32;20587;-66
2021/09/16 12:39:02;;;;;;;36.17;34.57;;;19.80;99.90;;;;;;4403224;32;20215;-64
2021/09/16 12:41:35;;;;;;;37.93;35.87;;;20.00;99.90;;;;;;4397409;32;20535;-66
2021/09/16 12:44:12;;;;;;;38.73;36.83;;;20.10;99.90;;;;;;4400510;32;20156;-65
2021/09/16 12:46:43;;;;;;;40.30;38.40;;;20.00;99.90;;;;;;4401525;32;20202;-68
2021/09/16 12:49:32;;;;;;;33.50;31.90;;;20.20;99.90;;;;;;4406014;32;20665;-67
2021/09/16 12:52:04;;;;;;;34.60;32.60;;;20.50;99.90;;;;;;4403374;32;20231;-65